Aeroporto :
LOGIN :

Iscrizione | Disclaimer

   EN    FR    IT 

 










Sommario :    VFR   VFR Marginale   IFR   IFR Intensivo   IFR Molto Intensivo
Visibilità : 
Base nubi : 
>= 8 km
>= 3000ft
5 / 8 km
1000 / 3000 ft
1500m / 5 km
500 / 1000 ft
800 / 1500m
200 / 500 ft
< 800m
< 200 ft
Simboli :   Temporali  Nebbia  Neve Forte  Precipitazioni Forti  Vento > 20 kt
SIGMETs :   Varie  Temporali  Ghiacco  Turbolenza  Onda orograficha  Ceneri Vulcaniche






- Altitudine del aeroporto : 453 ft
- Codice IATA : SBK


LFRT - St Brieuc Armor

ULTIMO METAR :
  • 241030Z AUTO 06004KT 030V090 4300 BR BKN008 03/02 Q1022

METARs OBSOLETI :
  • 241000Z AUTO 05005KT 4200 BR NSC 03/01 Q1021
  • 240930Z AUTO VRB01KT 4100 BR FEW007 03/01 Q1022
  • 240900Z AUTO VRB03KT 3800 BR OVC007 02/00 Q1022
  • 240830Z AUTO VRB02KT 4300 BR OVC007 01/M00 Q1021
  • 240800Z AUTO 16004KT 140V200 4000 BR OVC006 01/M01 Q1021

Previsioni scadute.



MetMap, La meteo Aeronautica in un colpo d'occhio ! - Copyright ORBIFLY Dicembre 2007 - Disclaimer

ORBIFLY MET'MAP TEAM :

Programmazione e sviluppo : Alexandra Zaïnal
Concezione : Baudouin d'Aumeries
Aiuto per la programmazione : Marc-Olivier Méhu
Supporto tecnico e logistico : Manuel Goepfert
Aiuto per la traduzione : Arnaldo La Scala

Contatto : metmap@orbifly.com




FONTI E CREDITI :

   NOAA